sensor_id;sensor_type;location;lat;lon;timestamp;pressure;altitude;pressure_sealevel;temperature;humidity
43147;BME280;28752;48.266;7.402;2024-01-30T00:01:01;100789.41;;;6.42;74.75
43147;BME280;28752;48.266;7.402;2024-01-30T00:03:26;100786.78;;;6.42;73.94
43147;BME280;28752;48.266;7.402;2024-01-30T00:05:52;100790.28;;;6.43;73.93
43147;BME280;28752;48.266;7.402;2024-01-30T00:08:17;100791.81;;;6.31;74.04
43147;BME280;28752;48.266;7.402;2024-01-30T00:10:42;100795.22;;;6.17;74.58
43147;BME280;28752;48.266;7.402;2024-01-30T00:13:08;100783.81;;;6.16;74.81
43147;BME280;28752;48.266;7.402;2024-01-30T00:15:34;100786.44;;;6.16;75.24
43147;BME280;28752;48.266;7.402;2024-01-30T00:18:00;100786.72;;;5.78;75.81
43147;BME280;28752;48.266;7.402;2024-01-30T00:20:25;100779.44;;;6.17;74.53
43147;BME280;28752;48.266;7.402;2024-01-30T00:22:50;100772.28;;;6.19;74.22
43147;BME280;28752;48.266;7.402;2024-01-30T00:25:16;100778.41;;;6.19;74.18
43147;BME280;28752;48.266;7.402;2024-01-30T00:27:41;100777.47;;;6.20;73.82
43147;BME280;28752;48.266;7.402;2024-01-30T00:30:07;100784.78;;;5.82;74.52
43147;BME280;28752;48.266;7.402;2024-01-30T00:32:32;100784.09;;;5.78;75.90
43147;BME280;28752;48.266;7.402;2024-01-30T00:34:58;100778.16;;;5.75;76.34
43147;BME280;28752;48.266;7.402;2024-01-30T00:37:23;100781.75;;;5.90;77.04
43147;BME280;28752;48.266;7.402;2024-01-30T00:39:48;100783.66;;;6.19;75.80
43147;BME280;28752;48.266;7.402;2024-01-30T00:42:14;100786.72;;;6.28;75.52
43147;BME280;28752;48.266;7.402;2024-01-30T00:44:39;100795.03;;;6.36;75.32
43147;BME280;28752;48.266;7.402;2024-01-30T00:47:05;100791.47;;;6.37;75.46
43147;BME280;28752;48.266;7.402;2024-01-30T00:49:30;100790.72;;;6.35;75.73
43147;BME280;28752;48.266;7.402;2024-01-30T00:51:56;100794.84;;;6.39;75.41
43147;BME280;28752;48.266;7.402;2024-01-30T00:54:21;100788.84;;;6.37;75.28
43147;BME280;28752;48.266;7.402;2024-01-30T00:56:47;100788.75;;;6.38;74.90
43147;BME280;28752;48.266;7.402;2024-01-30T00:59:12;100782.25;;;5.96;76.16
43147;BME280;28752;48.266;7.402;2024-01-30T01:01:37;100782.09;;;5.83;76.96
43147;BME280;28752;48.266;7.402;2024-01-30T01:04:03;100782.72;;;6.20;75.75
43147;BME280;28752;48.266;7.402;2024-01-30T01:06:28;100783.81;;;6.16;75.91
43147;BME280;28752;48.266;7.402;2024-01-30T01:08:53;100784.44;;;6.21;75.50
43147;BME280;28752;48.266;7.402;2024-01-30T01:11:19;100788.09;;;5.85;76.10
43147;BME280;28752;48.266;7.402;2024-01-30T01:13:44;100785.16;;;5.58;77.55
43147;BME280;28752;48.266;7.402;2024-01-30T01:16:09;100780.78;;;6.08;75.96
43147;BME280;28752;48.266;7.402;2024-01-30T01:18:35;100779.25;;;6.20;74.96
43147;BME280;28752;48.266;7.402;2024-01-30T01:21:00;100782.06;;;6.17;74.63
43147;BME280;28752;48.266;7.402;2024-01-30T01:23:26;100785.69;;;6.14;74.66
43147;BME280;28752;48.266;7.402;2024-01-30T01:25:51;100783.81;;;6.16;74.57
43147;BME280;28752;48.266;7.402;2024-01-30T01:28:17;100779.59;;;6.14;74.89
43147;BME280;28752;48.266;7.402;2024-01-30T01:30:42;100773.91;;;6.05;75.11
43147;BME280;28752;48.266;7.402;2024-01-30T01:33:08;100781.19;;;6.16;74.74
43147;BME280;28752;48.266;7.402;2024-01-30T01:35:34;100781.28;;;6.15;74.35
43147;BME280;28752;48.266;7.402;2024-01-30T01:38:00;100776.88;;;6.15;74.14
43147;BME280;28752;48.266;7.402;2024-01-30T01:40:27;100781.03;;;6.19;74.47
43147;BME280;28752;48.266;7.402;2024-01-30T01:42:53;100781.19;;;6.16;74.55
43147;BME280;28752;48.266;7.402;2024-01-30T01:45:20;100782.06;;;6.17;74.41
43147;BME280;28752;48.266;7.402;2024-01-30T01:47:50;100774.34;;;6.14;74.27
43147;BME280;28752;48.266;7.402;2024-01-30T01:50:16;100774.50;;;6.11;74.15
43147;BME280;28752;48.266;7.402;2024-01-30T01:52:50;100775.25;;;6.13;74.07
43147;BME280;28752;48.266;7.402;2024-01-30T01:55:16;100781.19;;;6.16;74.04
43147;BME280;28752;48.266;7.402;2024-01-30T01:57:47;100778.22;;;6.07;74.30
43147;BME280;28752;48.266;7.402;2024-01-30T02:00:12;100780.44;;;6.14;74.06
43147;BME280;28752;48.266;7.402;2024-01-30T02:02:39;100780.53;;;6.13;73.79
43147;BME280;28752;48.266;7.402;2024-01-30T02:05:04;100772.88;;;6.08;73.82
43147;BME280;28752;48.266;7.402;2024-01-30T02:07:30;100779.69;;;6.12;73.79
43147;BME280;28752;48.266;7.402;2024-01-30T02:09:56;100766.78;;;6.08;73.95
43147;BME280;28752;48.266;7.402;2024-01-30T02:12:21;100777.97;;;6.11;73.85
43147;BME280;28752;48.266;7.402;2024-01-30T02:14:47;100775.19;;;6.14;74.05
43147;BME280;28752;48.266;7.402;2024-01-30T02:17:13;100778.66;;;6.15;74.17
43147;BME280;28752;48.266;7.402;2024-01-30T02:19:39;100777.81;;;6.14;73.87
43147;BME280;28752;48.266;7.402;2024-01-30T02:22:04;100783.16;;;6.13;73.53
43147;BME280;28752;48.266;7.402;2024-01-30T02:24:29;100770.25;;;6.08;73.60
43147;BME280;28752;48.266;7.402;2024-01-30T02:26:55;100777.72;;;6.00;73.61
43147;BME280;28752;48.266;7.402;2024-01-30T02:29:20;100770.75;;;5.99;74.00
43147;BME280;28752;48.266;7.402;2024-01-30T02:31:46;100770.00;;;5.97;74.37
43147;BME280;28752;48.266;7.402;2024-01-30T02:34:11;100772.78;;;5.94;74.38
43147;BME280;28752;48.266;7.402;2024-01-30T02:36:37;100780.59;;;5.95;74.13
43147;BME280;28752;48.266;7.402;2024-01-30T02:39:03;100772.00;;;5.92;73.81
43147;BME280;28752;48.266;7.402;2024-01-30T02:41:28;100771.81;;;5.95;73.49
43147;BME280;28752;48.266;7.402;2024-01-30T02:43:53;100771.66;;;5.82;74.18
43147;BME280;28752;48.266;7.402;2024-01-30T02:46:19;100774.03;;;5.86;73.77
43147;BME280;28752;48.266;7.402;2024-01-30T02:48:44;100772.16;;;5.88;73.57
43147;BME280;28752;48.266;7.402;2024-01-30T02:51:09;100773.03;;;5.89;73.45
43147;BME280;28752;48.266;7.402;2024-01-30T02:53:35;100768.84;;;5.85;73.61
43147;BME280;28752;48.266;7.402;2024-01-30T02:56:02;100773.94;;;5.88;73.40
43147;BME280;28752;48.266;7.402;2024-01-30T02:58:27;100778.50;;;5.84;73.58
43147;BME280;28752;48.266;7.402;2024-01-30T03:00:53;100762.13;;;5.79;73.61
43147;BME280;28752;48.266;7.402;2024-01-30T03:03:18;100775.84;;;5.68;74.55
43147;BME280;28752;48.266;7.402;2024-01-30T03:05:43;100773.41;;;5.81;74.02
43147;BME280;28752;48.266;7.402;2024-01-30T03:08:09;100774.44;;;5.79;73.78
43147;BME280;28752;48.266;7.402;2024-01-30T03:10:34;100769.09;;;5.80;73.82
43147;BME280;28752;48.266;7.402;2024-01-30T03:12:59;100765.34;;;5.84;73.84
43147;BME280;28752;48.266;7.402;2024-01-30T03:15:25;100770.63;;;5.84;74.24
43147;BME280;28752;48.266;7.402;2024-01-30T03:17:50;100775.13;;;5.82;74.37
43147;BME280;28752;48.266;7.402;2024-01-30T03:20:15;100784.41;;;5.72;74.39
43147;BME280;28752;48.266;7.402;2024-01-30T03:22:41;100786.88;;;5.75;73.91
43147;BME280;28752;48.266;7.402;2024-01-30T03:25:06;100787.94;;;5.55;74.69
43147;BME280;28752;48.266;7.402;2024-01-30T03:27:32;100792.53;;;5.67;74.47
43147;BME280;28752;48.266;7.402;2024-01-30T03:29:57;100793.16;;;5.73;74.17
43147;BME280;28752;48.266;7.402;2024-01-30T03:32:22;100791.53;;;5.70;74.82
43147;BME280;28752;48.266;7.402;2024-01-30T03:34:48;100784.09;;;5.78;74.52
43147;BME280;28752;48.266;7.402;2024-01-30T03:37:13;100781.72;;;5.74;74.33
43147;BME280;28752;48.266;7.402;2024-01-30T03:39:38;100785.78;;;5.79;74.20
43147;BME280;28752;48.266;7.402;2024-01-30T03:42:04;100779.06;;;5.74;74.86
43147;BME280;28752;48.266;7.402;2024-01-30T03:44:29;100782.41;;;5.77;74.50
43147;BME280;28752;48.266;7.402;2024-01-30T03:46:54;100792.06;;;5.77;74.45
43147;BME280;28752;48.266;7.402;2024-01-30T03:49:20;100792.22;;;5.74;74.34
43147;BME280;28752;48.266;7.402;2024-01-30T03:51:45;100788.75;;;5.73;74.30
43147;BME280;28752;48.266;7.402;2024-01-30T03:54:12;100795.63;;;5.76;74.26
43147;BME280;28752;48.266;7.402;2024-01-30T03:56:38;100795.63;;;5.76;74.25
43147;BME280;28752;48.266;7.402;2024-01-30T03:59:06;100800.03;;;5.75;74.11
43147;BME280;28752;48.266;7.402;2024-01-30T04:01:32;100800.50;;;5.66;74.02
43147;BME280;28752;48.266;7.402;2024-01-30T04:03:59;100792.31;;;5.72;74.05
43147;BME280;28752;48.266;7.402;2024-01-30T04:06:25;100798.44;;;5.73;74.00
43147;BME280;28752;48.266;7.402;2024-01-30T04:08:54;100802.91;;;5.70;74.02
43147;BME280;28752;48.266;7.402;2024-01-30T04:11:20;100806.47;;;5.69;74.26
43147;BME280;28752;48.266;7.402;2024-01-30T04:13:45;100798.44;;;5.73;74.41
43147;BME280;28752;48.266;7.402;2024-01-30T04:16:22;100804.34;;;5.76;74.56
43147;BME280;28752;48.266;7.402;2024-01-30T04:18:48;100799.84;;;5.78;74.81
43147;BME280;28752;48.266;7.402;2024-01-30T04:21:14;100801.47;;;5.65;74.91
43147;BME280;28752;48.266;7.402;2024-01-30T04:23:40;100798.50;;;5.71;74.56
43147;BME280;28752;48.266;7.402;2024-01-30T04:26:05;100800.03;;;5.75;74.31
43147;BME280;28752;48.266;7.402;2024-01-30T04:28:31;100798.84;;;5.65;74.77
43147;BME280;28752;48.266;7.402;2024-01-30T04:30:56;100793.25;;;5.71;74.35
43147;BME280;28752;48.266;7.402;2024-01-30T04:33:21;100792.31;;;5.72;74.14
43147;BME280;28752;48.266;7.402;2024-01-30T04:35:47;100790.00;;;5.66;74.05
43147;BME280;28752;48.266;7.402;2024-01-30T04:38:12;100799.34;;;5.72;73.99
43147;BME280;28752;48.266;7.402;2024-01-30T04:40:38;100791.72;;;5.67;74.40
43147;BME280;28752;48.266;7.402;2024-01-30T04:43:03;100786.13;;;5.73;74.13
43147;BME280;28752;48.266;7.402;2024-01-30T04:45:29;100795.41;;;5.63;74.37
43147;BME280;28752;48.266;7.402;2024-01-30T04:47:54;100794.66;;;5.61;74.23
43147;BME280;28752;48.266;7.402;2024-01-30T04:50:20;100803.78;;;5.54;74.67
43147;BME280;28752;48.266;7.402;2024-01-30T04:52:45;100803.69;;;5.55;74.45
43147;BME280;28752;48.266;7.402;2024-01-30T04:55:10;100801.06;;;5.55;74.71
43147;BME280;28752;48.266;7.402;2024-01-30T04:57:36;100792.44;;;5.53;75.30
43147;BME280;28752;48.266;7.402;2024-01-30T05:00:02;100796.81;;;5.52;76.17
43147;BME280;28752;48.266;7.402;2024-01-30T05:02:27;100797.63;;;5.70;77.06
43147;BME280;28752;48.266;7.402;2024-01-30T05:04:52;100791.25;;;5.92;76.53
43147;BME280;28752;48.266;7.402;2024-01-30T05:07:18;100796.72;;;6.05;76.05
43147;BME280;28752;48.266;7.402;2024-01-30T05:09:43;100799.34;;;6.05;75.75
43147;BME280;28752;48.266;7.402;2024-01-30T05:12:08;100805.28;;;6.09;74.69
43147;BME280;28752;48.266;7.402;2024-01-30T05:14:34;100808.63;;;5.95;74.08
43147;BME280;28752;48.266;7.402;2024-01-30T05:16:59;100809.38;;;5.81;73.77
43147;BME280;28752;48.266;7.402;2024-01-30T05:19:24;100806.31;;;5.73;73.79
43147;BME280;28752;48.266;7.402;2024-01-30T05:21:50;100804.75;;;5.68;73.80
43147;BME280;28752;48.266;7.402;2024-01-30T05:24:15;100808.31;;;5.67;73.70
43147;BME280;28752;48.266;7.402;2024-01-30T05:26:41;100810.47;;;5.77;73.52
43147;BME280;28752;48.266;7.402;2024-01-30T05:29:06;100814.34;;;5.69;73.62
43147;BME280;28752;48.266;7.402;2024-01-30T05:31:33;100812.66;;;5.68;73.71
43147;BME280;28752;48.266;7.402;2024-01-30T05:33:59;100813.72;;;5.64;73.84
43147;BME280;28752;48.266;7.402;2024-01-30T05:36:25;100816.28;;;5.66;73.69
43147;BME280;28752;48.266;7.402;2024-01-30T05:38:50;100805.84;;;5.64;73.56
43147;BME280;28752;48.266;7.402;2024-01-30T05:41:16;100812.13;;;5.62;73.46
43147;BME280;28752;48.266;7.402;2024-01-30T05:43:42;100805.50;;;5.55;73.45
43147;BME280;28752;48.266;7.402;2024-01-30T05:46:07;100801.91;;;5.56;73.30
43147;BME280;28752;48.266;7.402;2024-01-30T05:48:32;100817.00;;;5.52;73.32
43147;BME280;28752;48.266;7.402;2024-01-30T05:51:00;100814.53;;;5.49;73.31
43147;BME280;28752;48.266;7.402;2024-01-30T05:53:25;100818.47;;;5.40;73.55
43147;BME280;28752;48.266;7.402;2024-01-30T05:55:51;100823.72;;;5.40;73.88
43147;BME280;28752;48.266;7.402;2024-01-30T05:58:17;100819.66;;;5.34;74.67
43147;BME280;28752;48.266;7.402;2024-01-30T06:00:42;100825.28;;;5.44;74.46
43147;BME280;28752;48.266;7.402;2024-01-30T06:03:11;100826.00;;;5.30;74.47
43147;BME280;28752;48.266;7.402;2024-01-30T06:05:36;100826.44;;;5.39;74.20
43147;BME280;28752;48.266;7.402;2024-01-30T06:08:02;100818.56;;;5.39;74.07
43147;BME280;28752;48.266;7.402;2024-01-30T06:10:28;100824.19;;;5.31;74.13
43147;BME280;28752;48.266;7.402;2024-01-30T06:12:54;100829.22;;;5.36;73.81
43147;BME280;28752;48.266;7.402;2024-01-30T06:15:20;100829.31;;;5.34;73.73
43147;BME280;28752;48.266;7.402;2024-01-30T06:17:52;100815.56;;;5.29;73.84
43147;BME280;28752;48.266;7.402;2024-01-30T06:20:17;100825.22;;;5.28;74.02
43147;BME280;28752;48.266;7.402;2024-01-30T06:22:44;100827.28;;;5.22;74.27
43147;BME280;28752;48.266;7.402;2024-01-30T06:25:17;100836.16;;;5.19;74.18
43147;BME280;28752;48.266;7.402;2024-01-30T06:27:44;100832.69;;;5.19;74.13
43147;BME280;28752;48.266;7.402;2024-01-30T06:30:09;100822.50;;;5.12;74.34
43147;BME280;28752;48.266;7.402;2024-01-30T06:32:35;100827.28;;;5.22;74.51
43147;BME280;28752;48.266;7.402;2024-01-30T06:35:01;100819.97;;;5.28;74.49
43147;BME280;28752;48.266;7.402;2024-01-30T06:37:27;100819.91;;;5.30;74.46
43147;BME280;28752;48.266;7.402;2024-01-30T06:39:52;100819.50;;;5.20;74.82
43147;BME280;28752;48.266;7.402;2024-01-30T06:42:18;100821.19;;;5.21;74.43
43147;BME280;28752;48.266;7.402;2024-01-30T06:44:43;100819.25;;;5.25;74.07
43147;BME280;28752;48.266;7.402;2024-01-30T06:47:09;100825.50;;;5.22;74.52
43147;BME280;28752;48.266;7.402;2024-01-30T06:49:34;100825.44;;;5.24;74.49
43147;BME280;28752;48.266;7.402;2024-01-30T06:52:00;100820.09;;;5.25;74.36
43147;BME280;28752;48.266;7.402;2024-01-30T06:54:25;100828.69;;;5.29;74.50
43147;BME280;28752;48.266;7.402;2024-01-30T06:56:50;100834.47;;;5.36;74.77
43147;BME280;28752;48.266;7.402;2024-01-30T06:59:16;100836.78;;;5.42;74.45
43147;BME280;28752;48.266;7.402;2024-01-30T07:01:41;100833.75;;;5.49;74.27
43147;BME280;28752;48.266;7.402;2024-01-30T07:04:06;100843.50;;;5.47;73.94
43147;BME280;28752;48.266;7.402;2024-01-30T07:06:31;100844.66;;;5.42;74.01
43147;BME280;28752;48.266;7.402;2024-01-30T07:08:57;100845.63;;;5.41;73.96
43147;BME280;28752;48.266;7.402;2024-01-30T07:11:22;100847.22;;;5.43;73.88
43147;BME280;28752;48.266;7.402;2024-01-30T07:13:49;100840.38;;;5.41;73.95
43147;BME280;28752;48.266;7.402;2024-01-30T07:16:15;100846.06;;;5.49;73.81
43147;BME280;28752;48.266;7.402;2024-01-30T07:18:40;100840.66;;;5.52;73.85
43147;BME280;28752;48.266;7.402;2024-01-30T07:21:06;100839.50;;;5.58;73.70
43147;BME280;28752;48.266;7.402;2024-01-30T07:23:31;100841.72;;;5.65;73.56
43147;BME280;28752;48.266;7.402;2024-01-30T07:25:57;100840.72;;;5.68;73.25
43147;BME280;28752;48.266;7.402;2024-01-30T07:28:22;100834.19;;;5.75;73.35
43147;BME280;28752;48.266;7.402;2024-01-30T07:30:47;100842.53;;;5.83;73.19
43147;BME280;28752;48.266;7.402;2024-01-30T07:33:13;100846.56;;;5.91;72.96
43147;BME280;28752;48.266;7.402;2024-01-30T07:35:39;100847.00;;;5.99;72.72
43147;BME280;28752;48.266;7.402;2024-01-30T07:38:04;100847.09;;;5.97;73.05
43147;BME280;28752;48.266;7.402;2024-01-30T07:40:29;100843.88;;;6.08;72.69
43147;BME280;28752;48.266;7.402;2024-01-30T07:42:55;100840.00;;;6.15;72.74
43147;BME280;28752;48.266;7.402;2024-01-30T07:45:20;100838.66;;;6.24;72.79
43147;BME280;28752;48.266;7.402;2024-01-30T07:47:48;100837.03;;;6.21;73.25
43147;BME280;28752;48.266;7.402;2024-01-30T07:50:14;100843.84;;;6.42;72.36
43147;BME280;28752;48.266;7.402;2024-01-30T07:52:39;100846.88;;;6.50;72.17
43147;BME280;28752;48.266;7.402;2024-01-30T07:58:16;100846.75;;;6.53;71.83
43147;BME280;28752;48.266;7.402;2024-01-30T08:00:42;100845.97;;;6.51;72.12
43147;BME280;28752;48.266;7.402;2024-01-30T08:03:07;100856.75;;;6.62;71.84
43147;BME280;28752;48.266;7.402;2024-01-30T08:05:32;100845.53;;;6.58;72.02
43147;BME280;28752;48.266;7.402;2024-01-30T08:07:58;100854.69;;;6.67;71.80
43147;BME280;28752;48.266;7.402;2024-01-30T08:10:23;100860.81;;;6.68;71.99
43147;BME280;28752;48.266;7.402;2024-01-30T08:12:49;100858.16;;;6.68;71.86
43147;BME280;28752;48.266;7.402;2024-01-30T08:15:14;100863.53;;;6.82;71.48
43147;BME280;28752;48.266;7.402;2024-01-30T08:17:39;100860.91;;;6.82;71.34
43147;BME280;28752;48.266;7.402;2024-01-30T08:20:06;100858.25;;;6.82;71.59
43147;BME280;28752;48.266;7.402;2024-01-30T08:22:32;100855.75;;;6.95;71.64
43147;BME280;28752;48.266;7.402;2024-01-30T08:24:57;100861.47;;;7.03;71.39
43147;BME280;28752;48.266;7.402;2024-01-30T08:27:22;100860.66;;;7.17;71.33
43147;BME280;28752;48.266;7.402;2024-01-30T08:29:48;100862.19;;;7.21;71.04
43147;BME280;28752;48.266;7.402;2024-01-30T08:32:15;100861.47;;;7.34;71.04
43147;BME280;28752;48.266;7.402;2024-01-30T08:34:40;100858.75;;;7.50;70.55
43147;BME280;28752;48.266;7.402;2024-01-30T08:37:05;100856.16;;;7.64;70.51
43147;BME280;28752;48.266;7.402;2024-01-30T08:39:31;100854.59;;;7.76;70.24
43147;BME280;28752;48.266;7.402;2024-01-30T08:41:56;100850.06;;;7.92;69.69
43147;BME280;28752;48.266;7.402;2024-01-30T08:44:21;100848.53;;;8.03;69.36
43147;BME280;28752;48.266;7.402;2024-01-30T08:46:47;100854.50;;;8.06;69.46
43147;BME280;28752;48.266;7.402;2024-01-30T08:49:13;100857.03;;;8.22;68.97
43147;BME280;28752;48.266;7.402;2024-01-30T08:51:41;100849.84;;;8.39;68.57
43147;BME280;28752;48.266;7.402;2024-01-30T08:54:06;100860.69;;;8.48;68.00
43147;BME280;28752;48.266;7.402;2024-01-30T08:56:31;100855.22;;;8.51;68.00
43147;BME280;28752;48.266;7.402;2024-01-30T08:58:57;100855.50;;;8.47;68.07
43147;BME280;28752;48.266;7.402;2024-01-30T09:01:22;100864.09;;;8.50;67.96
43147;BME280;28752;48.266;7.402;2024-01-30T09:03:47;100872.69;;;8.67;67.67
43147;BME280;28752;48.266;7.402;2024-01-30T09:06:13;100861.91;;;8.57;67.82
43147;BME280;28752;48.266;7.402;2024-01-30T09:08:38;100852.84;;;8.61;67.56
43147;BME280;28752;48.266;7.402;2024-01-30T09:11:14;100861.03;;;8.42;68.21
43147;BME280;28752;48.266;7.402;2024-01-30T09:13:40;100865.75;;;8.66;67.81
43147;BME280;28752;48.266;7.402;2024-01-30T09:16:06;100865.66;;;8.67;67.81
43147;BME280;28752;48.266;7.402;2024-01-30T09:18:31;100863.69;;;8.57;67.81
43147;BME280;28752;48.266;7.402;2024-01-30T09:20:57;100872.56;;;8.56;67.91
43147;BME280;28752;48.266;7.402;2024-01-30T09:23:22;100873.47;;;8.69;67.64
43147;BME280;28752;48.266;7.402;2024-01-30T09:25:48;100873.28;;;8.72;67.78
43147;BME280;28752;48.266;7.402;2024-01-30T09:28:13;100878.78;;;8.82;67.85
43147;BME280;28752;48.266;7.402;2024-01-30T09:30:39;100870.44;;;8.75;68.12
43147;BME280;28752;48.266;7.402;2024-01-30T09:33:05;100877.31;;;9.05;67.65
43147;BME280;28752;48.266;7.402;2024-01-30T09:35:31;100890.78;;;9.28;67.26
43147;BME280;28752;48.266;7.402;2024-01-30T09:37:56;100891.88;;;9.25;67.36
43147;BME280;28752;48.266;7.402;2024-01-30T09:40:22;100892.28;;;9.19;67.18
43147;BME280;28752;48.266;7.402;2024-01-30T09:42:50;100898.34;;;9.47;66.50
43147;BME280;28752;48.266;7.402;2024-01-30T09:45:18;100898.81;;;9.66;65.90
43147;BME280;28752;48.266;7.402;2024-01-30T09:47:44;100900.94;;;9.61;65.15
43147;BME280;28752;48.266;7.402;2024-01-30T09:50:11;100899.25;;;9.86;64.96
43147;BME280;28752;48.266;7.402;2024-01-30T09:52:37;100905.09;;;10.04;64.61
43147;BME280;28752;48.266;7.402;2024-01-30T09:55:03;100897.75;;;10.07;64.24
43147;BME280;28752;48.266;7.402;2024-01-30T09:57:28;100902.75;;;10.25;64.12
43147;BME280;28752;48.266;7.402;2024-01-30T09:59:54;100903.78;;;10.35;63.69
43147;BME280;28752;48.266;7.402;2024-01-30T10:02:20;100900.94;;;10.38;63.55
43147;BME280;28752;48.266;7.402;2024-01-30T10:04:48;100900.31;;;10.72;63.32
43147;BME280;28752;48.266;7.402;2024-01-30T10:07:15;100900.97;;;10.75;63.84
43147;BME280;28752;48.266;7.402;2024-01-30T10:09:40;100902.72;;;10.88;63.30
43147;BME280;28752;48.266;7.402;2024-01-30T10:12:06;100894.38;;;11.05;62.71
43147;BME280;28752;48.266;7.402;2024-01-30T10:14:32;100902.78;;;10.99;62.39
43147;BME280;28752;48.266;7.402;2024-01-30T10:16:58;100904.97;;;11.05;61.98
43147;BME280;28752;48.266;7.402;2024-01-30T10:19:24;100896.13;;;11.17;61.71
43147;BME280;28752;48.266;7.402;2024-01-30T10:21:49;100903.22;;;11.17;61.20
43147;BME280;28752;48.266;7.402;2024-01-30T10:24:15;100893.38;;;11.19;61.38
43147;BME280;28752;48.266;7.402;2024-01-30T10:26:40;100890.44;;;11.11;61.54
43147;BME280;28752;48.266;7.402;2024-01-30T10:29:08;100888.91;;;11.19;61.62
43147;BME280;28752;48.266;7.402;2024-01-30T10:31:34;100890.38;;;11.24;61.02
43147;BME280;28752;48.266;7.402;2024-01-30T10:33:59;100886.97;;;11.22;61.22
43147;BME280;28752;48.266;7.402;2024-01-30T10:36:28;100893.88;;;11.35;60.76
43147;BME280;28752;48.266;7.402;2024-01-30T10:38:55;100886.34;;;11.42;60.61
43147;BME280;28752;48.266;7.402;2024-01-30T10:41:26;100882.28;;;11.61;60.65
43147;BME280;28752;48.266;7.402;2024-01-30T10:44:08;100884.59;;;11.65;60.63
43147;BME280;28752;48.266;7.402;2024-01-30T10:46:35;100884.22;;;11.70;60.42
43147;BME280;28752;48.266;7.402;2024-01-30T10:49:02;100882.22;;;11.85;60.44
43147;BME280;28752;48.266;7.402;2024-01-30T10:51:31;100880.63;;;11.82;60.37
43147;BME280;28752;48.266;7.402;2024-01-30T10:53:57;100876.09;;;11.96;60.13
43147;BME280;28752;48.266;7.402;2024-01-30T10:56:23;100881.41;;;12.18;60.06
43147;BME280;28752;48.266;7.402;2024-01-30T10:58:50;100883.84;;;12.10;59.98
43147;BME280;28752;48.266;7.402;2024-01-30T11:01:16;100888.78;;;12.15;60.19
43147;BME280;28752;48.266;7.402;2024-01-30T11:03:42;100882.38;;;12.06;59.69
43147;BME280;28752;48.266;7.402;2024-01-30T11:06:11;100883.34;;;12.27;59.53
43147;BME280;28752;48.266;7.402;2024-01-30T11:08:39;100886.84;;;12.28;59.00
43147;BME280;28752;48.266;7.402;2024-01-30T11:11:08;100883.28;;;11.82;59.03
43147;BME280;28752;48.266;7.402;2024-01-30T11:13:34;100880.94;;;12.02;59.31
43147;BME280;28752;48.266;7.402;2024-01-30T11:16:03;100888.19;;;12.00;59.67
43147;BME280;28752;48.266;7.402;2024-01-30T11:18:31;100882.50;;;12.16;59.31
43147;BME280;28752;48.266;7.402;2024-01-30T11:20:59;100886.25;;;12.02;59.57
43147;BME280;28752;48.266;7.402;2024-01-30T11:23:27;100877.69;;;11.98;59.42
43147;BME280;28752;48.266;7.402;2024-01-30T11:25:53;100884.78;;;12.20;59.24
43147;BME280;28752;48.266;7.402;2024-01-30T11:28:18;100884.06;;;12.18;59.64
43147;BME280;28752;48.266;7.402;2024-01-30T11:30:45;100882.28;;;12.30;59.35
43147;BME280;28752;48.266;7.402;2024-01-30T11:33:13;100875.56;;;12.58;58.38
43147;BME280;28752;48.266;7.402;2024-01-30T11:35:42;100880.31;;;12.55;58.19
43147;BME280;28752;48.266;7.402;2024-01-30T11:38:10;100879.34;;;12.56;58.85
43147;BME280;28752;48.266;7.402;2024-01-30T11:40:37;100874.72;;;12.69;58.29
43147;BME280;28752;48.266;7.402;2024-01-30T11:43:04;100877.47;;;12.79;58.38
43147;BME280;28752;48.266;7.402;2024-01-30T11:45:31;100877.22;;;12.82;57.90
43147;BME280;28752;48.266;7.402;2024-01-30T11:47:58;100870.03;;;13.05;57.61
43147;BME280;28752;48.266;7.402;2024-01-30T11:50:33;100866.03;;;13.00;57.31
43147;BME280;28752;48.266;7.402;2024-01-30T11:53:00;100864.56;;;13.07;57.47
43147;BME280;28752;48.266;7.402;2024-01-30T11:55:29;100873.19;;;12.99;57.41
43147;BME280;28752;48.266;7.402;2024-01-30T11:57:57;100872.41;;;12.76;58.72
43147;BME280;28752;48.266;7.402;2024-01-30T12:00:32;100865.00;;;13.23;57.43
43147;BME280;28752;48.266;7.402;2024-01-30T12:02:59;100864.19;;;12.68;58.33
43147;BME280;28752;48.266;7.402;2024-01-30T12:05:27;100868.72;;;12.44;58.98
43147;BME280;28752;48.266;7.402;2024-01-30T12:07:56;100862.16;;;12.71;59.18
43147;BME280;28752;48.266;7.402;2024-01-30T12:10:24;100861.47;;;12.58;59.57
43147;BME280;28752;48.266;7.402;2024-01-30T12:12:52;100861.28;;;12.82;59.43
43147;BME280;28752;48.266;7.402;2024-01-30T12:16:08;100857.94;;;13.01;58.03
43147;BME280;28752;48.266;7.402;2024-01-30T12:18:24;100858.97;;;13.21;57.92
43147;BME280;28752;48.266;7.402;2024-01-30T12:20:58;100860.25;;;13.38;56.08
43147;BME280;28752;48.266;7.402;2024-01-30T12:23:28;100859.06;;;13.52;55.94
43147;BME280;28752;48.266;7.402;2024-01-30T12:25:55;100853.47;;;13.76;55.68
43147;BME280;28752;48.266;7.402;2024-01-30T12:28:22;100845.06;;;13.71;55.39
43147;BME280;28752;48.266;7.402;2024-01-30T12:30:55;100851.78;;;13.75;55.38
43147;BME280;28752;48.266;7.402;2024-01-30T12:33:24;100852.50;;;13.77;55.28
43147;BME280;28752;48.266;7.402;2024-01-30T12:35:50;100847.41;;;13.95;54.67
43147;BME280;28752;48.266;7.402;2024-01-30T12:38:15;100843.75;;;13.96;55.04
43147;BME280;28752;48.266;7.402;2024-01-30T12:40:41;100845.47;;;14.07;55.21
43147;BME280;28752;48.266;7.402;2024-01-30T12:43:06;100840.88;;;14.09;55.63
43147;BME280;28752;48.266;7.402;2024-01-30T12:45:32;100835.69;;;14.08;55.22
43147;BME280;28752;48.266;7.402;2024-01-30T12:47:57;100852.09;;;14.13;55.05
43147;BME280;28752;48.266;7.402;2024-01-30T12:50:23;100855.81;;;14.31;55.24
43147;BME280;28752;48.266;7.402;2024-01-30T12:52:49;100846.28;;;14.29;55.02
43147;BME280;28752;48.266;7.402;2024-01-30T12:55:14;100848.13;;;14.38;55.44